sensor_id;sensor_type;location;lat;lon;timestamp;P1;durP1;ratioP1;P2;durP2;ratioP2
54545;SDS011;40444;45.184;9.850;2024-03-23T00:52:39;20.42;;;14.63;;
54545;SDS011;40444;45.184;9.850;2024-03-23T00:55:06;20.88;;;15.10;;
54545;SDS011;40444;45.184;9.850;2024-03-23T00:57:34;26.30;;;15.52;;
54545;SDS011;40444;45.184;9.850;2024-03-23T01:00:01;22.15;;;16.33;;
54545;SDS011;40444;45.184;9.850;2024-03-23T01:02:29;19.90;;;14.95;;
54545;SDS011;40444;45.184;9.850;2024-03-23T01:04:56;22.50;;;15.25;;
54545;SDS011;40444;45.184;9.850;2024-03-23T01:07:24;21.48;;;15.25;;
54545;SDS011;40444;45.184;9.850;2024-03-23T01:09:51;21.50;;;14.82;;
54545;SDS011;40444;45.184;9.850;2024-03-23T01:12:19;20.95;;;15.18;;
54545;SDS011;40444;45.184;9.850;2024-03-23T01:14:46;23.13;;;15.32;;
54545;SDS011;40444;45.184;9.850;2024-03-23T01:17:14;24.38;;;17.50;;
54545;SDS011;40444;45.184;9.850;2024-03-23T01:19:41;23.48;;;16.73;;
54545;SDS011;40444;45.184;9.850;2024-03-23T01:22:09;23.30;;;15.32;;
54545;SDS011;40444;45.184;9.850;2024-03-23T01:24:39;21.20;;;13.55;;
54545;SDS011;40444;45.184;9.850;2024-03-23T01:27:06;20.08;;;15.50;;
54545;SDS011;40444;45.184;9.850;2024-03-23T01:29:34;22.35;;;15.70;;
54545;SDS011;40444;45.184;9.850;2024-03-23T01:32:01;25.00;;;16.88;;
54545;SDS011;40444;45.184;9.850;2024-03-23T01:34:28;23.73;;;17.02;;
54545;SDS011;40444;45.184;9.850;2024-03-23T01:36:55;26.30;;;18.17;;
54545;SDS011;40444;45.184;9.850;2024-03-23T01:39:23;26.85;;;19.17;;
54545;SDS011;40444;45.184;9.850;2024-03-23T01:41:50;25.42;;;18.38;;
54545;SDS011;40444;45.184;9.850;2024-03-23T01:44:17;23.70;;;17.40;;
54545;SDS011;40444;45.184;9.850;2024-03-23T01:46:45;22.55;;;17.33;;
54545;SDS011;40444;45.184;9.850;2024-03-23T01:49:13;20.02;;;15.73;;
54545;SDS011;40444;45.184;9.850;2024-03-23T01:51:40;18.65;;;14.07;;
54545;SDS011;40444;45.184;9.850;2024-03-23T01:54:08;22.27;;;15.80;;
54545;SDS011;40444;45.184;9.850;2024-03-23T01:56:36;23.15;;;16.73;;
54545;SDS011;40444;45.184;9.850;2024-03-23T01:59:04;26.55;;;16.70;;
54545;SDS011;40444;45.184;9.850;2024-03-23T02:01:33;22.88;;;16.58;;
54545;SDS011;40444;45.184;9.850;2024-03-23T02:04:02;23.88;;;17.20;;
54545;SDS011;40444;45.184;9.850;2024-03-23T02:06:30;25.38;;;17.63;;
54545;SDS011;40444;45.184;9.850;2024-03-23T02:08:57;27.17;;;19.35;;
54545;SDS011;40444;45.184;9.850;2024-03-23T02:11:25;28.02;;;18.50;;
54545;SDS011;40444;45.184;9.850;2024-03-23T02:13:52;28.63;;;19.00;;
54545;SDS011;40444;45.184;9.850;2024-03-23T02:16:19;28.08;;;19.35;;
54545;SDS011;40444;45.184;9.850;2024-03-23T02:18:46;28.75;;;18.80;;
54545;SDS011;40444;45.184;9.850;2024-03-23T02:21:15;24.30;;;17.10;;
54545;SDS011;40444;45.184;9.850;2024-03-23T02:23:42;24.55;;;17.65;;
54545;SDS011;40444;45.184;9.850;2024-03-23T02:26:09;24.27;;;17.95;;
54545;SDS011;40444;45.184;9.850;2024-03-23T02:28:36;30.25;;;18.65;;
54545;SDS011;40444;45.184;9.850;2024-03-23T02:31:04;30.75;;;18.33;;
54545;SDS011;40444;45.184;9.850;2024-03-23T02:33:31;22.77;;;16.15;;
54545;SDS011;40444;45.184;9.850;2024-03-23T02:35:59;22.60;;;16.30;;
54545;SDS011;40444;45.184;9.850;2024-03-23T02:38:26;26.20;;;17.95;;
54545;SDS011;40444;45.184;9.850;2024-03-23T02:40:54;28.02;;;17.73;;
54545;SDS011;40444;45.184;9.850;2024-03-23T02:43:21;25.90;;;18.63;;
54545;SDS011;40444;45.184;9.850;2024-03-23T02:45:48;30.23;;;18.70;;
54545;SDS011;40444;45.184;9.850;2024-03-23T02:48:16;23.15;;;16.48;;
54545;SDS011;40444;45.184;9.850;2024-03-23T02:50:43;25.17;;;16.40;;
54545;SDS011;40444;45.184;9.850;2024-03-23T02:53:10;26.00;;;17.88;;
54545;SDS011;40444;45.184;9.850;2024-03-23T02:55:37;25.70;;;17.15;;
54545;SDS011;40444;45.184;9.850;2024-03-23T02:58:05;28.02;;;16.90;;
54545;SDS011;40444;45.184;9.850;2024-03-23T03:00:32;26.27;;;18.60;;
54545;SDS011;40444;45.184;9.850;2024-03-23T03:02:59;30.25;;;20.30;;
54545;SDS011;40444;45.184;9.850;2024-03-23T03:05:26;26.25;;;18.20;;
54545;SDS011;40444;45.184;9.850;2024-03-23T03:07:54;28.67;;;18.38;;
54545;SDS011;40444;45.184;9.850;2024-03-23T03:10:21;34.47;;;20.77;;
54545;SDS011;40444;45.184;9.850;2024-03-23T03:12:48;29.23;;;20.55;;
54545;SDS011;40444;45.184;9.850;2024-03-23T03:15:16;31.23;;;20.58;;
54545;SDS011;40444;45.184;9.850;2024-03-23T03:17:43;31.42;;;20.95;;
54545;SDS011;40444;45.184;9.850;2024-03-23T03:20:11;28.80;;;19.45;;
54545;SDS011;40444;45.184;9.850;2024-03-23T03:22:40;29.23;;;19.95;;
54545;SDS011;40444;45.184;9.850;2024-03-23T03:25:07;22.20;;;16.25;;
54545;SDS011;40444;45.184;9.850;2024-03-23T03:27:35;26.23;;;16.85;;
54545;SDS011;40444;45.184;9.850;2024-03-23T03:30:02;24.38;;;16.33;;
54545;SDS011;40444;45.184;9.850;2024-03-23T03:32:32;22.38;;;15.82;;
54545;SDS011;40444;45.184;9.850;2024-03-23T03:35:00;22.75;;;16.33;;
54545;SDS011;40444;45.184;9.850;2024-03-23T03:37:27;22.55;;;15.63;;
54545;SDS011;40444;45.184;9.850;2024-03-23T03:39:55;23.48;;;15.50;;
54545;SDS011;40444;45.184;9.850;2024-03-23T03:42:22;21.80;;;14.57;;
54545;SDS011;40444;45.184;9.850;2024-03-23T03:44:50;21.58;;;15.13;;
54545;SDS011;40444;45.184;9.850;2024-03-23T03:47:18;21.48;;;14.00;;
54545;SDS011;40444;45.184;9.850;2024-03-23T03:49:45;26.52;;;16.70;;
54545;SDS011;40444;45.184;9.850;2024-03-23T03:52:14;19.42;;;13.95;;
54545;SDS011;40444;45.184;9.850;2024-03-23T03:54:41;20.50;;;14.40;;
54545;SDS011;40444;45.184;9.850;2024-03-23T03:57:09;20.15;;;15.30;;
54545;SDS011;40444;45.184;9.850;2024-03-23T03:59:36;21.30;;;13.82;;
54545;SDS011;40444;45.184;9.850;2024-03-23T04:02:03;19.50;;;14.43;;
54545;SDS011;40444;45.184;9.850;2024-03-23T04:04:31;23.42;;;15.45;;
54545;SDS011;40444;45.184;9.850;2024-03-23T04:06:59;25.73;;;18.40;;
54545;SDS011;40444;45.184;9.850;2024-03-23T04:09:27;24.52;;;17.17;;
54545;SDS011;40444;45.184;9.850;2024-03-23T04:11:55;26.83;;;17.50;;
54545;SDS011;40444;45.184;9.850;2024-03-23T04:14:22;28.38;;;19.77;;
54545;SDS011;40444;45.184;9.850;2024-03-23T04:16:49;24.55;;;17.98;;
54545;SDS011;40444;45.184;9.850;2024-03-23T04:19:17;25.05;;;17.05;;
54545;SDS011;40444;45.184;9.850;2024-03-23T04:21:44;26.48;;;18.05;;
54545;SDS011;40444;45.184;9.850;2024-03-23T04:24:11;26.67;;;17.40;;
54545;SDS011;40444;45.184;9.850;2024-03-23T04:26:45;23.08;;;16.15;;
54545;SDS011;40444;45.184;9.850;2024-03-23T04:29:13;21.20;;;15.52;;
54545;SDS011;40444;45.184;9.850;2024-03-23T04:31:40;22.30;;;15.55;;
54545;SDS011;40444;45.184;9.850;2024-03-23T04:34:07;23.95;;;16.98;;
54545;SDS011;40444;45.184;9.850;2024-03-23T04:36:34;29.98;;;19.67;;
54545;SDS011;40444;45.184;9.850;2024-03-23T04:39:02;31.60;;;20.02;;
54545;SDS011;40444;45.184;9.850;2024-03-23T04:41:29;30.95;;;18.90;;
54545;SDS011;40444;45.184;9.850;2024-03-23T04:43:57;27.85;;;19.48;;
54545;SDS011;40444;45.184;9.850;2024-03-23T04:46:24;27.90;;;20.02;;
54545;SDS011;40444;45.184;9.850;2024-03-23T04:48:51;30.75;;;20.35;;
54545;SDS011;40444;45.184;9.850;2024-03-23T04:51:25;29.40;;;18.90;;
54545;SDS011;40444;45.184;9.850;2024-03-23T04:53:53;27.05;;;18.83;;
54545;SDS011;40444;45.184;9.850;2024-03-23T04:56:20;28.95;;;19.08;;
54545;SDS011;40444;45.184;9.850;2024-03-23T04:58:50;31.08;;;20.02;;
54545;SDS011;40444;45.184;9.850;2024-03-23T05:01:17;32.58;;;21.35;;
54545;SDS011;40444;45.184;9.850;2024-03-23T05:03:44;31.45;;;21.15;;
54545;SDS011;40444;45.184;9.850;2024-03-23T05:06:11;27.33;;;19.15;;
54545;SDS011;40444;45.184;9.850;2024-03-23T05:08:39;27.80;;;18.35;;
54545;SDS011;40444;45.184;9.850;2024-03-23T05:11:06;27.38;;;17.73;;
54545;SDS011;40444;45.184;9.850;2024-03-23T05:13:33;28.85;;;18.92;;
54545;SDS011;40444;45.184;9.850;2024-03-23T05:16:00;27.50;;;18.20;;
54545;SDS011;40444;45.184;9.850;2024-03-23T05:18:27;27.35;;;17.73;;
54545;SDS011;40444;45.184;9.850;2024-03-23T05:20:55;24.90;;;17.48;;
54545;SDS011;40444;45.184;9.850;2024-03-23T05:23:24;29.20;;;17.60;;
54545;SDS011;40444;45.184;9.850;2024-03-23T05:25:52;29.23;;;19.45;;
54545;SDS011;40444;45.184;9.850;2024-03-23T05:28:20;33.53;;;21.33;;
54545;SDS011;40444;45.184;9.850;2024-03-23T05:30:51;35.83;;;24.30;;
54545;SDS011;40444;45.184;9.850;2024-03-23T05:33:21;37.80;;;23.95;;
54545;SDS011;40444;45.184;9.850;2024-03-23T05:35:56;40.72;;;24.73;;
54545;SDS011;40444;45.184;9.850;2024-03-23T05:38:27;37.65;;;25.10;;
54545;SDS011;40444;45.184;9.850;2024-03-23T05:40:55;38.55;;;24.85;;
54545;SDS011;40444;45.184;9.850;2024-03-23T05:43:23;42.30;;;26.30;;
54545;SDS011;40444;45.184;9.850;2024-03-23T05:45:56;50.80;;;29.95;;
54545;SDS011;40444;45.184;9.850;2024-03-23T05:48:28;42.80;;;28.48;;
54545;SDS011;40444;45.184;9.850;2024-03-23T05:50:57;41.58;;;28.45;;
54545;SDS011;40444;45.184;9.850;2024-03-23T05:53:24;41.83;;;27.83;;
54545;SDS011;40444;45.184;9.850;2024-03-23T05:55:51;47.33;;;29.05;;
54545;SDS011;40444;45.184;9.850;2024-03-23T05:58:27;42.80;;;28.77;;
54545;SDS011;40444;45.184;9.850;2024-03-23T06:00:58;44.45;;;28.10;;
54545;SDS011;40444;45.184;9.850;2024-03-23T06:03:27;47.75;;;30.30;;
54545;SDS011;40444;45.184;9.850;2024-03-23T06:05:55;46.53;;;30.73;;
54545;SDS011;40444;45.184;9.850;2024-03-23T06:08:22;47.58;;;30.10;;
54545;SDS011;40444;45.184;9.850;2024-03-23T06:10:51;49.10;;;32.40;;
54545;SDS011;40444;45.184;9.850;2024-03-23T06:13:18;48.13;;;31.58;;
54545;SDS011;40444;45.184;9.850;2024-03-23T06:15:45;55.30;;;35.15;;
54545;SDS011;40444;45.184;9.850;2024-03-23T06:18:13;57.63;;;34.88;;
54545;SDS011;40444;45.184;9.850;2024-03-23T06:20:40;51.13;;;33.88;;
54545;SDS011;40444;45.184;9.850;2024-03-23T06:23:08;57.30;;;35.08;;
54545;SDS011;40444;45.184;9.850;2024-03-23T06:25:35;53.63;;;34.80;;
54545;SDS011;40444;45.184;9.850;2024-03-23T06:28:03;53.10;;;35.47;;
54545;SDS011;40444;45.184;9.850;2024-03-23T06:30:31;58.28;;;35.42;;
54545;SDS011;40444;45.184;9.850;2024-03-23T06:32:59;54.95;;;35.22;;
54545;SDS011;40444;45.184;9.850;2024-03-23T06:35:26;57.25;;;34.88;;
54545;SDS011;40444;45.184;9.850;2024-03-23T06:37:53;55.67;;;35.90;;
54545;SDS011;40444;45.184;9.850;2024-03-23T06:40:21;53.33;;;35.45;;
54545;SDS011;40444;45.184;9.850;2024-03-23T06:42:48;55.17;;;34.38;;
54545;SDS011;40444;45.184;9.850;2024-03-23T06:45:16;56.88;;;36.55;;
54545;SDS011;40444;45.184;9.850;2024-03-23T06:47:44;59.28;;;37.55;;
54545;SDS011;40444;45.184;9.850;2024-03-23T06:50:11;59.45;;;36.58;;
54545;SDS011;40444;45.184;9.850;2024-03-23T06:52:38;58.95;;;36.97;;
54545;SDS011;40444;45.184;9.850;2024-03-23T06:55:06;62.30;;;37.25;;
54545;SDS011;40444;45.184;9.850;2024-03-23T06:57:33;54.22;;;36.72;;
54545;SDS011;40444;45.184;9.850;2024-03-23T07:00:01;55.78;;;36.90;;
54545;SDS011;40444;45.184;9.850;2024-03-23T07:02:29;58.38;;;36.45;;
54545;SDS011;40444;45.184;9.850;2024-03-23T07:04:56;58.20;;;36.67;;
54545;SDS011;40444;45.184;9.850;2024-03-23T07:07:24;54.13;;;37.08;;
54545;SDS011;40444;45.184;9.850;2024-03-23T07:09:51;62.95;;;39.97;;
54545;SDS011;40444;45.184;9.850;2024-03-23T07:12:19;59.58;;;40.70;;
54545;SDS011;40444;45.184;9.850;2024-03-23T07:14:47;50.60;;;36.47;;
54545;SDS011;40444;45.184;9.850;2024-03-23T07:17:14;56.40;;;36.20;;
54545;SDS011;40444;45.184;9.850;2024-03-23T07:19:42;54.85;;;36.60;;
54545;SDS011;40444;45.184;9.850;2024-03-23T07:22:10;55.20;;;36.60;;
54545;SDS011;40444;45.184;9.850;2024-03-23T07:24:38;53.20;;;35.30;;
54545;SDS011;40444;45.184;9.850;2024-03-23T07:27:06;51.05;;;35.80;;
54545;SDS011;40444;45.184;9.850;2024-03-23T07:29:37;55.80;;;38.40;;
54545;SDS011;40444;45.184;9.850;2024-03-23T07:32:04;53.85;;;37.88;;
54545;SDS011;40444;45.184;9.850;2024-03-23T07:34:32;54.97;;;36.20;;
54545;SDS011;40444;45.184;9.850;2024-03-23T07:36:59;52.28;;;36.75;;
54545;SDS011;40444;45.184;9.850;2024-03-23T07:39:27;51.78;;;37.55;;
54545;SDS011;40444;45.184;9.850;2024-03-23T07:41:54;52.00;;;35.72;;
54545;SDS011;40444;45.184;9.850;2024-03-23T07:44:21;50.58;;;36.55;;
54545;SDS011;40444;45.184;9.850;2024-03-23T07:46:49;48.97;;;35.22;;
54545;SDS011;40444;45.184;9.850;2024-03-23T07:49:15;53.17;;;35.60;;
54545;SDS011;40444;45.184;9.850;2024-03-23T07:51:43;51.67;;;36.85;;
54545;SDS011;40444;45.184;9.850;2024-03-23T07:54:11;47.47;;;34.63;;
54545;SDS011;40444;45.184;9.850;2024-03-23T07:56:38;48.10;;;35.13;;
54545;SDS011;40444;45.184;9.850;2024-03-23T07:59:05;49.65;;;35.60;;
54545;SDS011;40444;45.184;9.850;2024-03-23T08:01:32;47.50;;;35.13;;
54545;SDS011;40444;45.184;9.850;2024-03-23T08:04:00;46.90;;;33.83;;
54545;SDS011;40444;45.184;9.850;2024-03-23T08:06:29;47.45;;;33.67;;
54545;SDS011;40444;45.184;9.850;2024-03-23T08:08:57;46.22;;;33.17;;
54545;SDS011;40444;45.184;9.850;2024-03-23T08:11:29;45.08;;;34.13;;
54545;SDS011;40444;45.184;9.850;2024-03-23T08:13:57;46.60;;;33.08;;
54545;SDS011;40444;45.184;9.850;2024-03-23T08:16:25;44.45;;;31.58;;
54545;SDS011;40444;45.184;9.850;2024-03-23T08:18:52;42.15;;;32.17;;
54545;SDS011;40444;45.184;9.850;2024-03-23T08:21:20;40.97;;;31.48;;
54545;SDS011;40444;45.184;9.850;2024-03-23T08:23:48;51.97;;;33.65;;
54545;SDS011;40444;45.184;9.850;2024-03-23T08:26:17;45.03;;;33.00;;
54545;SDS011;40444;45.184;9.850;2024-03-23T08:28:51;45.50;;;33.20;;
54545;SDS011;40444;45.184;9.850;2024-03-23T08:31:19;44.83;;;31.67;;
54545;SDS011;40444;45.184;9.850;2024-03-23T08:33:46;43.10;;;32.03;;
54545;SDS011;40444;45.184;9.850;2024-03-23T08:36:17;45.95;;;31.42;;
54545;SDS011;40444;45.184;9.850;2024-03-23T08:38:47;40.03;;;30.08;;
54545;SDS011;40444;45.184;9.850;2024-03-23T08:41:22;40.10;;;28.95;;
54545;SDS011;40444;45.184;9.850;2024-03-23T08:43:49;39.70;;;27.50;;
54545;SDS011;40444;45.184;9.850;2024-03-23T08:46:18;35.75;;;27.27;;
54545;SDS011;40444;45.184;9.850;2024-03-23T08:48:47;36.33;;;28.05;;
54545;SDS011;40444;45.184;9.850;2024-03-23T08:51:16;35.67;;;28.02;;
54545;SDS011;40444;45.184;9.850;2024-03-23T08:54:32;37.83;;;27.85;;
54545;SDS011;40444;45.184;9.850;2024-03-23T08:57:00;35.75;;;27.38;;
54545;SDS011;40444;45.184;9.850;2024-03-23T08:59:27;37.22;;;26.70;;
54545;SDS011;40444;45.184;9.850;2024-03-23T09:01:55;38.55;;;28.33;;
54545;SDS011;40444;45.184;9.850;2024-03-23T09:04:40;36.63;;;28.23;;
54545;SDS011;40444;45.184;9.850;2024-03-23T09:07:12;38.40;;;28.52;;
54545;SDS011;40444;45.184;9.850;2024-03-23T09:09:44;35.85;;;27.10;;
54545;SDS011;40444;45.184;9.850;2024-03-23T09:12:56;33.25;;;25.75;;
54545;SDS011;40444;45.184;9.850;2024-03-23T09:15:23;33.80;;;24.95;;
54545;SDS011;40444;45.184;9.850;2024-03-23T09:17:52;38.65;;;27.63;;
54545;SDS011;40444;45.184;9.850;2024-03-23T09:21:26;35.75;;;27.33;;
54545;SDS011;40444;45.184;9.850;2024-03-23T09:25:22;39.80;;;29.83;;
54545;SDS011;40444;45.184;9.850;2024-03-23T09:29:23;30.27;;;24.13;;
54545;SDS011;40444;45.184;9.850;2024-03-23T09:32:12;32.47;;;25.55;;
54545;SDS011;40444;45.184;9.850;2024-03-23T09:34:41;42.08;;;29.67;;
54545;SDS011;40444;45.184;9.850;2024-03-23T09:37:08;33.60;;;25.73;;
54545;SDS011;40444;45.184;9.850;2024-03-23T09:39:36;32.25;;;24.67;;
54545;SDS011;40444;45.184;9.850;2024-03-23T09:42:03;29.95;;;22.00;;
54545;SDS011;40444;45.184;9.850;2024-03-23T09:44:31;37.30;;;28.70;;
54545;SDS011;40444;45.184;9.850;2024-03-23T09:46:58;31.45;;;24.67;;
54545;SDS011;40444;45.184;9.850;2024-03-23T09:49:28;30.67;;;24.45;;
54545;SDS011;40444;45.184;9.850;2024-03-23T09:51:56;32.65;;;24.27;;
54545;SDS011;40444;45.184;9.850;2024-03-23T09:54:24;34.17;;;25.65;;
54545;SDS011;40444;45.184;9.850;2024-03-23T09:56:54;32.85;;;24.52;;
54545;SDS011;40444;45.184;9.850;2024-03-23T09:59:24;30.55;;;23.40;;
54545;SDS011;40444;45.184;9.850;2024-03-23T10:01:53;27.23;;;22.38;;
54545;SDS011;40444;45.184;9.850;2024-03-23T10:04:39;28.77;;;22.67;;
54545;SDS011;40444;45.184;9.850;2024-03-23T10:07:11;28.15;;;21.90;;
54545;SDS011;40444;45.184;9.850;2024-03-23T10:09:45;26.48;;;21.40;;
54545;SDS011;40444;45.184;9.850;2024-03-23T10:12:19;23.98;;;20.48;;
54545;SDS011;40444;45.184;9.850;2024-03-23T10:14:47;26.60;;;20.88;;
54545;SDS011;40444;45.184;9.850;2024-03-23T10:17:20;26.33;;;21.80;;
54545;SDS011;40444;45.184;9.850;2024-03-23T10:19:51;24.90;;;20.45;;
54545;SDS011;40444;45.184;9.850;2024-03-23T10:22:20;24.85;;;18.75;;
54545;SDS011;40444;45.184;9.850;2024-03-23T10:24:48;23.80;;;18.85;;
54545;SDS011;40444;45.184;9.850;2024-03-23T10:27:17;24.15;;;19.23;;
54545;SDS011;40444;45.184;9.850;2024-03-23T10:29:48;22.20;;;17.83;;
54545;SDS011;40444;45.184;9.850;2024-03-23T10:32:17;23.77;;;19.33;;
54545;SDS011;40444;45.184;9.850;2024-03-23T10:34:45;22.75;;;18.73;;
54545;SDS011;40444;45.184;9.850;2024-03-23T10:37:12;24.75;;;18.60;;
54545;SDS011;40444;45.184;9.850;2024-03-23T10:39:40;21.85;;;18.25;;
54545;SDS011;40444;45.184;9.850;2024-03-23T10:42:08;24.70;;;19.17;;
54545;SDS011;40444;45.184;9.850;2024-03-23T10:44:39;25.23;;;20.10;;
54545;SDS011;40444;45.184;9.850;2024-03-23T10:47:06;24.52;;;19.27;;
54545;SDS011;40444;45.184;9.850;2024-03-23T10:49:33;22.23;;;18.10;;
54545;SDS011;40444;45.184;9.850;2024-03-23T10:52:02;21.98;;;18.10;;
54545;SDS011;40444;45.184;9.850;2024-03-23T10:54:31;23.02;;;19.80;;
54545;SDS011;40444;45.184;9.850;2024-03-23T10:57:02;21.42;;;17.98;;
54545;SDS011;40444;45.184;9.850;2024-03-23T10:59:32;21.95;;;18.55;;
54545;SDS011;40444;45.184;9.850;2024-03-23T11:02:01;20.88;;;17.42;;
54545;SDS011;40444;45.184;9.850;2024-03-23T11:04:35;23.23;;;18.40;;
54545;SDS011;40444;45.184;9.850;2024-03-23T11:09:59;26.27;;;18.88;;
54545;SDS011;40444;45.184;9.850;2024-03-23T11:12:27;23.98;;;19.27;;
54545;SDS011;40444;45.184;9.850;2024-03-23T11:17:31;22.75;;;18.80;;
54545;SDS011;40444;45.184;9.850;2024-03-23T11:19:59;26.38;;;18.98;;
54545;SDS011;40444;45.184;9.850;2024-03-23T11:25:20;22.65;;;19.67;;
54545;SDS011;40444;45.184;9.850;2024-03-23T11:27:57;22.42;;;19.27;;
54545;SDS011;40444;45.184;9.850;2024-03-23T11:30:37;22.20;;;18.45;;
54545;SDS011;40444;45.184;9.850;2024-03-23T11:33:05;22.92;;;18.77;;
54545;SDS011;40444;45.184;9.850;2024-03-23T11:35:34;21.48;;;18.38;;
54545;SDS011;40444;45.184;9.850;2024-03-23T11:38:08;26.17;;;19.77;;
54545;SDS011;40444;45.184;9.850;2024-03-23T11:40:36;24.98;;;18.55;;
54545;SDS011;40444;45.184;9.850;2024-03-23T11:43:05;22.52;;;17.95;;
54545;SDS011;40444;45.184;9.850;2024-03-23T11:45:37;22.80;;;17.55;;
54545;SDS011;40444;45.184;9.850;2024-03-23T11:48:10;22.23;;;18.30;;
54545;SDS011;40444;45.184;9.850;2024-03-23T11:50:41;20.75;;;17.40;;
54545;SDS011;40444;45.184;9.850;2024-03-23T11:53:17;24.17;;;19.17;;
54545;SDS011;40444;45.184;9.850;2024-03-23T11:55:46;23.45;;;18.55;;
54545;SDS011;40444;45.184;9.850;2024-03-23T11:58:15;23.23;;;19.02;;
54545;SDS011;40444;45.184;9.850;2024-03-23T12:00:49;24.02;;;18.55;;
54545;SDS011;40444;45.184;9.850;2024-03-23T12:03:27;23.55;;;19.60;;
54545;SDS011;40444;45.184;9.850;2024-03-23T12:05:56;24.15;;;19.40;;
54545;SDS011;40444;45.184;9.850;2024-03-23T12:08:31;22.70;;;18.95;;
54545;SDS011;40444;45.184;9.850;2024-03-23T12:11:06;24.00;;;18.98;;
54545;SDS011;40444;45.184;9.850;2024-03-23T12:13:44;24.80;;;19.52;;
54545;SDS011;40444;45.184;9.850;2024-03-23T12:16:16;22.58;;;19.00;;
54545;SDS011;40444;45.184;9.850;2024-03-23T12:18:50;19.20;;;16.73;;
54545;SDS011;40444;45.184;9.850;2024-03-23T12:21:21;21.17;;;16.73;;
54545;SDS011;40444;45.184;9.850;2024-03-23T12:23:49;22.75;;;17.85;;
54545;SDS011;40444;45.184;9.850;2024-03-23T12:26:17;18.52;;;16.38;;
54545;SDS011;40444;45.184;9.850;2024-03-23T12:28:44;19.15;;;17.13;;
54545;SDS011;40444;45.184;9.850;2024-03-23T12:31:11;22.50;;;17.55;;
54545;SDS011;40444;45.184;9.850;2024-03-23T12:33:39;21.08;;;16.48;;
54545;SDS011;40444;45.184;9.850;2024-03-23T12:36:06;19.60;;;15.82;;
54545;SDS011;40444;45.184;9.850;2024-03-23T12:38:34;20.13;;;17.45;;
54545;SDS011;40444;45.184;9.850;2024-03-23T12:41:01;17.85;;;15.57;;
54545;SDS011;40444;45.184;9.850;2024-03-23T12:43:28;21.00;;;16.40;;
54545;SDS011;40444;45.184;9.850;2024-03-23T12:45:56;21.17;;;16.10;;
54545;SDS011;40444;45.184;9.850;2024-03-23T12:48:23;18.23;;;15.70;;
54545;SDS011;40444;45.184;9.850;2024-03-23T12:50:54;21.10;;;17.05;;
54545;SDS011;40444;45.184;9.850;2024-03-23T12:53:21;19.50;;;16.10;;
54545;SDS011;40444;45.184;9.850;2024-03-23T12:55:48;20.35;;;16.08;;
54545;SDS011;40444;45.184;9.850;2024-03-23T12:58:15;19.55;;;16.45;;
54545;SDS011;40444;45.184;9.850;2024-03-23T13:00:43;23.52;;;17.85;;
54545;SDS011;40444;45.184;9.850;2024-03-23T13:03:13;22.48;;;17.98;;
54545;SDS011;40444;45.184;9.850;2024-03-23T13:05:42;20.63;;;16.95;;
54545;SDS011;40444;45.184;9.850;2024-03-23T13:08:09;18.52;;;16.25;;
54545;SDS011;40444;45.184;9.850;2024-03-23T13:10:37;23.33;;;19.42;;
54545;SDS011;40444;45.184;9.850;2024-03-23T13:13:04;23.20;;;17.67;;
54545;SDS011;40444;45.184;9.850;2024-03-23T13:15:31;21.30;;;16.60;;
54545;SDS011;40444;45.184;9.850;2024-03-23T13:17:58;20.77;;;16.88;;
54545;SDS011;40444;45.184;9.850;2024-03-23T13:20:26;20.42;;;17.00;;
54545;SDS011;40444;45.184;9.850;2024-03-23T13:22:53;22.27;;;16.45;;
54545;SDS011;40444;45.184;9.850;2024-03-23T13:25:20;36.08;;;17.55;;
54545;SDS011;40444;45.184;9.850;2024-03-23T13:27:48;20.67;;;16.27;;
54545;SDS011;40444;45.184;9.850;2024-03-23T13:30:15;23.27;;;18.15;;
54545;SDS011;40444;45.184;9.850;2024-03-23T13:32:43;23.80;;;18.85;;
54545;SDS011;40444;45.184;9.850;2024-03-23T13:35:10;23.75;;;19.13;;
54545;SDS011;40444;45.184;9.850;2024-03-23T13:37:37;23.80;;;18.38;;
54545;SDS011;40444;45.184;9.850;2024-03-23T13:40:05;23.20;;;19.55;;
54545;SDS011;40444;45.184;9.850;2024-03-23T13:42:33;25.95;;;20.42;;
54545;SDS011;40444;45.184;9.850;2024-03-23T13:45:00;27.55;;;22.05;;
54545;SDS011;40444;45.184;9.850;2024-03-23T13:47:27;23.98;;;20.20;;
54545;SDS011;40444;45.184;9.850;2024-03-23T13:49:55;24.85;;;18.70;;
54545;SDS011;40444;45.184;9.850;2024-03-23T13:52:23;20.85;;;18.42;;
54545;SDS011;40444;45.184;9.850;2024-03-23T13:54:52;21.08;;;17.80;;
54545;SDS011;40444;45.184;9.850;2024-03-23T13:57:22;20.75;;;16.88;;
54545;SDS011;40444;45.184;9.850;2024-03-23T13:59:50;21.70;;;16.48;;
54545;SDS011;40444;45.184;9.850;2024-03-23T14:02:20;18.63;;;15.48;;
54545;SDS011;40444;45.184;9.850;2024-03-23T14:04:47;21.23;;;15.93;;
54545;SDS011;40444;45.184;9.850;2024-03-23T14:07:15;19.42;;;16.17;;
54545;SDS011;40444;45.184;9.850;2024-03-23T14:09:44;19.90;;;16.67;;
54545;SDS011;40444;45.184;9.850;2024-03-23T14:12:11;21.15;;;16.95;;
54545;SDS011;40444;45.184;9.850;2024-03-23T14:14:38;18.85;;;15.35;;
54545;SDS011;40444;45.184;9.850;2024-03-23T14:17:05;17.58;;;15.65;;
54545;SDS011;40444;45.184;9.850;2024-03-23T14:19:32;18.48;;;15.82;;
54545;SDS011;40444;45.184;9.850;2024-03-23T14:21:59;17.48;;;15.23;;
54545;SDS011;40444;45.184;9.850;2024-03-23T14:24:27;16.52;;;14.55;;
54545;SDS011;40444;45.184;9.850;2024-03-23T14:26:54;21.98;;;16.00;;
54545;SDS011;40444;45.184;9.850;2024-03-23T14:29:21;18.63;;;15.25;;
54545;SDS011;40444;45.184;9.850;2024-03-23T14:31:48;19.48;;;15.32;;
54545;SDS011;40444;45.184;9.850;2024-03-23T14:34:16;17.42;;;13.45;;
54545;SDS011;40444;45.184;9.850;2024-03-23T14:36:43;16.05;;;12.20;;
54545;SDS011;40444;45.184;9.850;2024-03-23T14:39:11;16.67;;;12.73;;
54545;SDS011;40444;45.184;9.850;2024-03-23T14:41:39;16.75;;;13.68;;
54545;SDS011;40444;45.184;9.850;2024-03-23T14:44:07;16.60;;;13.60;;
54545;SDS011;40444;45.184;9.850;2024-03-23T14:46:34;15.57;;;13.65;;
54545;SDS011;40444;45.184;9.850;2024-03-23T14:49:01;15.68;;;12.27;;
54545;SDS011;40444;45.184;9.850;2024-03-23T14:51:28;16.05;;;14.18;;
54545;SDS011;40444;45.184;9.850;2024-03-23T14:53:56;16.75;;;13.57;;
54545;SDS011;40444;45.184;9.850;2024-03-23T14:56:23;17.35;;;13.85;;
54545;SDS011;40444;45.184;9.850;2024-03-23T14:58:53;19.42;;;15.25;;
54545;SDS011;40444;45.184;9.850;2024-03-23T15:01:22;15.43;;;13.70;;
54545;SDS011;40444;45.184;9.850;2024-03-23T15:03:49;19.90;;;14.43;;
54545;SDS011;40444;45.184;9.850;2024-03-23T15:06:20;17.35;;;14.23;;
54545;SDS011;40444;45.184;9.850;2024-03-23T15:08:47;22.05;;;13.95;;
54545;SDS011;40444;45.184;9.850;2024-03-23T15:11:14;18.48;;;14.20;;
54545;SDS011;40444;45.184;9.850;2024-03-23T15:13:41;19.83;;;13.82;;
54545;SDS011;40444;45.184;9.850;2024-03-23T15:16:07;16.33;;;13.82;;
54545;SDS011;40444;45.184;9.850;2024-03-23T15:18:35;15.80;;;12.70;;
54545;SDS011;40444;45.184;9.850;2024-03-23T15:21:03;15.98;;;12.70;;
54545;SDS011;40444;45.184;9.850;2024-03-23T15:23:34;13.88;;;11.30;;
54545;SDS011;40444;45.184;9.850;2024-03-23T15:26:02;14.18;;;10.77;;
54545;SDS011;40444;45.184;9.850;2024-03-23T15:28:30;13.35;;;9.63;;
54545;SDS011;40444;45.184;9.850;2024-03-23T15:31:16;15.45;;;10.10;;
54545;SDS011;40444;45.184;9.850;2024-03-23T15:33:42;13.32;;;10.35;;